createdAt,value
2017-06-29T00:01:24.101Z,81.00
2017-06-29T00:03:52.500Z,81.00
2017-06-29T00:06:20.934Z,81.00
2017-06-29T00:08:49.362Z,80.70
2017-06-29T00:11:17.786Z,81.30
2017-06-29T00:13:47.127Z,81.40
2017-06-29T00:16:15.551Z,80.90
2017-06-29T00:18:43.996Z,80.90
2017-06-29T00:21:12.422Z,81.30
2017-06-29T00:23:40.848Z,81.20
2017-06-29T00:26:09.423Z,81.30
2017-06-29T00:28:38.603Z,81.20
2017-06-29T00:31:07.785Z,81.70
2017-06-29T00:33:36.203Z,81.20
2017-06-29T00:36:04.635Z,81.00
2017-06-29T00:38:33.063Z,81.20
2017-06-29T00:41:01.507Z,81.20
2017-06-29T00:43:29.916Z,81.40
2017-06-29T00:45:58.337Z,80.50
2017-06-29T00:48:26.769Z,80.30
2017-06-29T00:50:56.085Z,80.20
2017-06-29T00:53:24.489Z,80.20
2017-06-29T00:55:52.904Z,80.10
2017-06-29T00:58:22.097Z,79.90
2017-06-29T01:00:50.512Z,79.90
2017-06-29T01:03:18.956Z,79.90
2017-06-29T01:05:47.359Z,80.30
2017-06-29T01:08:16.535Z,80.60
2017-06-29T01:10:44.957Z,80.50
2017-06-29T01:13:13.364Z,80.80
2017-06-29T01:15:41.805Z,81.10
2017-06-29T01:18:10.217Z,80.80
2017-06-29T01:20:38.864Z,80.80
2017-06-29T01:23:07.280Z,81.10
2017-06-29T01:25:35.703Z,81.00
2017-06-29T01:28:04.806Z,81.00
2017-06-29T01:30:33.625Z,81.30
2017-06-29T01:33:02.480Z,81.30
2017-06-29T01:35:31.664Z,80.90
2017-06-29T01:38:00.832Z,80.90
2017-06-29T01:40:28.563Z,80.80
2017-06-29T01:42:56.964Z,80.90
2017-06-29T01:45:25.435Z,80.60
2017-06-29T01:47:53.865Z,80.60
2017-06-29T01:50:22.698Z,81.30
2017-06-29T01:52:51.116Z,81.20
2017-06-29T01:55:18.840Z,80.60
2017-06-29T01:57:46.576Z,80.30
2017-06-29T02:00:14.985Z,80.60
2017-06-29T02:02:43.401Z,80.70
2017-06-29T02:05:11.469Z,80.70
2017-06-29T02:07:39.164Z,80.70
2017-06-29T02:10:07.604Z,81.00
2017-06-29T02:12:36.016Z,80.70
2017-06-29T02:15:05.187Z,80.90
2017-06-29T02:17:33.695Z,80.70
2017-06-29T02:20:02.117Z,80.70
2017-06-29T02:22:30.563Z,81.40
2017-06-29T02:24:58.971Z,81.20
2017-06-29T02:27:27.388Z,80.60
2017-06-29T02:29:55.828Z,80.60
2017-06-29T02:32:24.263Z,81.20
2017-06-29T02:34:53.667Z,81.10
2017-06-29T02:37:22.845Z,80.90
2017-06-29T02:39:51.265Z,80.90
2017-06-29T02:42:19.688Z,80.50
2017-06-29T02:44:48.103Z,81.20
2017-06-29T02:47:17.516Z,81.00
2017-06-29T02:49:45.925Z,81.00
2017-06-29T02:52:14.329Z,81.00
2017-06-29T02:54:42.751Z,80.70
2017-06-29T02:57:11.161Z,81.10
2017-06-29T02:59:39.605Z,81.00
2017-06-29T03:02:08.016Z,81.50
2017-06-29T03:04:36.437Z,80.40
2017-06-29T03:07:05.544Z,80.50
2017-06-29T03:09:34.731Z,80.40
2017-06-29T03:12:04.151Z,80.70
2017-06-29T03:14:32.560Z,80.60
2017-06-29T03:17:00.965Z,80.70
2017-06-29T03:19:29.400Z,80.50
2017-06-29T03:21:57.832Z,80.60
2017-06-29T03:24:26.444Z,80.70
2017-06-29T03:26:55.612Z,80.20
2017-06-29T03:29:24.024Z,80.20
2017-06-29T03:31:52.463Z,80.00
2017-06-29T03:34:20.860Z,79.50
2017-06-29T03:36:50.284Z,79.70
2017-06-29T03:39:18.696Z,80.30
2017-06-29T03:41:47.145Z,80.20
2017-06-29T03:44:15.571Z,79.90
2017-06-29T03:46:44.004Z,80.00
2017-06-29T03:49:12.572Z,80.50
2017-06-29T03:51:41.746Z,80.50
2017-06-29T03:54:10.161Z,80.50
2017-06-29T03:56:38.604Z,79.70
2017-06-29T03:59:07.025Z,79.40
2017-06-29T04:01:35.704Z,79.70
2017-06-29T04:04:04.127Z,80.00
2017-06-29T04:06:32.339Z,79.60
2017-06-29T04:09:01.651Z,79.80
2017-06-29T04:11:30.130Z,80.50
2017-06-29T04:13:58.539Z,79.20
2017-06-29T04:16:26.958Z,78.60
2017-06-29T04:18:55.376Z,79.10
2017-06-29T04:21:23.827Z,79.00
2017-06-29T04:23:53.015Z,80.00
2017-06-29T04:26:21.419Z,79.30
2017-06-29T04:28:49.841Z,79.00
2017-06-29T04:31:18.282Z,79.10
2017-06-29T04:33:46.965Z,78.90
2017-06-29T04:36:16.148Z,79.00
2017-06-29T04:38:45.331Z,79.30
2017-06-29T04:41:13.756Z,79.30
2017-06-29T04:43:42.177Z,79.20
2017-06-29T04:46:10.655Z,79.30
2017-06-29T04:48:39.087Z,79.30
2017-06-29T04:51:07.495Z,79.40
2017-06-29T04:53:35.992Z,79.00
2017-06-29T04:56:04.404Z,79.00
2017-06-29T04:58:33.768Z,79.00
2017-06-29T05:01:02.191Z,79.00
2017-06-29T05:03:30.612Z,78.70
2017-06-29T05:05:59.161Z,78.90
2017-06-29T05:08:27.567Z,79.30
2017-06-29T05:10:56.664Z,78.60
2017-06-29T05:13:25.092Z,79.10
2017-06-29T05:15:54.285Z,78.70
2017-06-29T05:18:23.616Z,78.80
2017-06-29T05:20:52.028Z,78.80
2017-06-29T05:23:20.251Z,78.80
2017-06-29T05:25:48.680Z,78.00
2017-06-29T05:28:17.140Z,77.80
2017-06-29T05:30:45.805Z,78.10
2017-06-29T05:33:14.253Z,78.20
2017-06-29T05:35:42.784Z,77.70
2017-06-29T05:38:11.204Z,77.30
2017-06-29T05:40:39.607Z,77.20
2017-06-29T05:43:08.911Z,76.50
2017-06-29T05:45:38.095Z,76.40
2017-06-29T05:48:07.263Z,74.70
2017-06-29T05:50:35.692Z,75.40
2017-06-29T05:53:04.102Z,75.20
2017-06-29T05:55:32.521Z,74.40
2017-06-29T05:58:00.925Z,73.60
2017-06-29T06:00:29.351Z,74.50
2017-06-29T06:02:57.772Z,75.00
2017-06-29T06:05:26.953Z,74.30
2017-06-29T06:07:55.777Z,74.20
2017-06-29T06:10:24.184Z,73.80
2017-06-29T06:12:52.601Z,73.60
2017-06-29T06:15:21.720Z,72.50
2017-06-29T06:17:50.136Z,72.70
2017-06-29T06:20:18.576Z,72.40
2017-06-29T06:22:47.051Z,72.10
2017-06-29T06:25:16.219Z,72.10
2017-06-29T06:27:44.657Z,72.10
2017-06-29T06:30:13.057Z,72.50
2017-06-29T06:32:41.543Z,72.10
2017-06-29T06:35:09.968Z,71.30
2017-06-29T06:37:38.394Z,71.80
2017-06-29T06:40:06.815Z,71.50
2017-06-29T06:42:35.999Z,70.70
2017-06-29T06:45:05.311Z,71.20
2017-06-29T06:47:34.478Z,72.00
2017-06-29T06:50:02.892Z,71.80
2017-06-29T06:52:32.084Z,70.50
2017-06-29T06:55:01.287Z,70.60
2017-06-29T06:57:30.913Z,71.00
2017-06-29T06:59:59.692Z,71.00
2017-06-29T07:02:28.165Z,71.30
2017-06-29T07:04:56.586Z,71.20
2017-06-29T07:07:24.817Z,69.90
2017-06-29T07:09:54.012Z,70.90
2017-06-29T07:12:22.070Z,70.80
2017-06-29T07:14:51.256Z,69.70
2017-06-29T07:17:19.671Z,69.80
2017-06-29T07:19:48.076Z,70.00
2017-06-29T07:22:16.509Z,69.60
2017-06-29T07:24:45.694Z,69.40
2017-06-29T07:27:14.869Z,68.80
2017-06-29T07:29:43.302Z,68.20
2017-06-29T07:32:11.712Z,68.30
2017-06-29T07:34:40.352Z,69.10
2017-06-29T07:37:08.776Z,69.40
2017-06-29T07:39:37.183Z,69.80
2017-06-29T07:42:05.610Z,68.20
2017-06-29T07:44:34.033Z,67.30
2017-06-29T07:47:02.664Z,68.50
2017-06-29T07:49:31.077Z,67.00
2017-06-29T07:51:59.486Z,67.10
2017-06-29T07:54:28.680Z,67.30
2017-06-29T07:56:57.855Z,66.50
2017-06-29T07:59:26.495Z,66.30
2017-06-29T08:01:54.908Z,65.50
2017-06-29T08:04:23.324Z,65.30
2017-06-29T08:06:52.517Z,65.30
2017-06-29T08:09:20.946Z,65.20
2017-06-29T08:11:49.412Z,64.70
2017-06-29T08:14:17.643Z,63.90
2017-06-29T08:16:46.156Z,64.40
2017-06-29T08:19:14.579Z,64.50
2017-06-29T08:21:42.997Z,65.40
2017-06-29T08:24:12.337Z,63.60
2017-06-29T08:26:40.762Z,63.50
2017-06-29T08:29:09.180Z,63.50
2017-06-29T08:31:37.602Z,63.50
2017-06-29T08:34:06.013Z,63.20
2017-06-29T08:36:35.219Z,62.50
2017-06-29T08:39:03.707Z,62.00
2017-06-29T08:41:32.128Z,62.00
2017-06-29T08:44:00.544Z,60.90
2017-06-29T08:46:29.717Z,60.40
2017-06-29T08:48:58.154Z,60.40
2017-06-29T08:51:26.567Z,61.00
2017-06-29T08:53:54.983Z,62.20
2017-06-29T08:56:24.178Z,61.90
2017-06-29T08:58:53.395Z,61.70
2017-06-29T09:01:22.067Z,61.70
2017-06-29T09:03:50.476Z,61.80
2017-06-29T09:06:18.884Z,60.50
2017-06-29T09:08:47.322Z,59.80
2017-06-29T09:11:15.743Z,58.60
2017-06-29T09:13:44.177Z,58.80
2017-06-29T09:16:12.650Z,59.10
2017-06-29T09:18:41.365Z,59.90
2017-06-29T09:21:09.767Z,61.80
2017-06-29T09:23:38.177Z,59.30
2017-06-29T09:26:07.366Z,60.40
2017-06-29T09:28:36.564Z,59.20
2017-06-29T09:31:05.804Z,59.50
2017-06-29T09:33:34.215Z,59.50
2017-06-29T09:36:02.627Z,59.40
2017-06-29T09:38:31.811Z,58.30
2017-06-29T09:41:01.009Z,59.80
2017-06-29T09:43:30.340Z,59.20
2017-06-29T09:45:58.772Z,59.20
2017-06-29T09:48:27.515Z,57.70
2017-06-29T09:50:55.936Z,59.30
2017-06-29T09:53:24.351Z,58.50
2017-06-29T09:55:52.865Z,58.50
2017-06-29T09:58:21.288Z,55.40
2017-06-29T10:00:49.778Z,56.40
2017-06-29T10:03:18.940Z,55.70
2017-06-29T10:05:47.352Z,55.90
2017-06-29T10:08:16.545Z,56.50
2017-06-29T10:10:45.731Z,56.70
2017-06-29T10:13:14.435Z,56.60
2017-06-29T10:15:43.619Z,55.10
2017-06-29T10:18:12.820Z,56.00
2017-06-29T10:20:42.012Z,55.20
2017-06-29T10:23:10.462Z,55.20
2017-06-29T10:25:38.900Z,56.40
2017-06-29T10:28:07.337Z,54.10
2017-06-29T10:30:35.759Z,55.40
2017-06-29T10:33:04.224Z,56.20
2017-06-29T10:35:33.623Z,55.80
2017-06-29T10:38:02.320Z,56.40
2017-06-29T10:40:31.528Z,55.20
2017-06-29T10:42:59.963Z,55.10
2017-06-29T10:45:28.420Z,54.90
2017-06-29T10:47:56.820Z,56.10
2017-06-29T10:50:26.252Z,54.30
2017-06-29T10:52:54.659Z,54.30
2017-06-29T10:55:23.147Z,53.90
2017-06-29T10:57:51.581Z,53.50
2017-06-29T11:00:20.747Z,55.20
2017-06-29T11:02:49.224Z,55.10
2017-06-29T11:05:17.645Z,55.40
2017-06-29T11:07:46.808Z,54.70
2017-06-29T11:10:15.387Z,54.70
2017-06-29T11:12:43.804Z,53.80
2017-06-29T11:15:12.495Z,54.10
2017-06-29T11:17:40.905Z,54.20
2017-06-29T11:20:09.320Z,55.20
2017-06-29T11:22:37.750Z,55.60
2017-06-29T11:25:06.162Z,54.40
2017-06-29T11:27:34.595Z,54.50
2017-06-29T11:30:03.028Z,54.60
2017-06-29T11:32:31.645Z,54.10
2017-06-29T11:35:00.909Z,52.90
2017-06-29T11:37:29.317Z,52.80
2017-06-29T11:39:58.512Z,52.90
2017-06-29T11:42:27.699Z,52.00
2017-06-29T11:44:56.940Z,52.60
2017-06-29T11:47:25.355Z,52.50
2017-06-29T11:49:53.772Z,52.00
2017-06-29T11:52:22.697Z,52.40
2017-06-29T11:54:51.565Z,52.80
2017-06-29T11:57:20.395Z,52.40
2017-06-29T11:59:48.885Z,53.40
2017-06-29T12:02:17.596Z,54.40
2017-06-29T12:04:46.034Z,54.60
2017-06-29T12:07:14.451Z,54.30
2017-06-29T12:09:42.883Z,54.40
2017-06-29T12:12:11.291Z,53.50
2017-06-29T12:14:39.895Z,53.20
2017-06-29T12:17:08.468Z,52.40
2017-06-29T12:19:37.769Z,51.00
2017-06-29T12:22:06.985Z,53.20
2017-06-29T12:24:35.464Z,53.10
2017-06-29T12:27:04.294Z,53.10
2017-06-29T12:29:32.706Z,52.30
2017-06-29T12:32:02.250Z,54.00
2017-06-29T12:34:30.679Z,53.40
2017-06-29T12:36:59.121Z,53.30
2017-06-29T12:39:27.765Z,52.80
2017-06-29T12:41:56.384Z,52.50
2017-06-29T12:44:26.719Z,53.60
2017-06-29T12:46:55.364Z,53.30
2017-06-29T12:49:23.788Z,51.00
2017-06-29T12:51:52.439Z,52.70
2017-06-29T12:54:20.878Z,53.30
2017-06-29T12:56:50.506Z,55.40
2017-06-29T12:59:18.983Z,55.40
2017-06-29T13:01:47.445Z,55.20
2017-06-29T13:04:16.960Z,52.60
2017-06-29T13:06:46.147Z,52.90
2017-06-29T13:09:15.474Z,51.20
2017-06-29T13:11:43.971Z,51.20
2017-06-29T13:14:12.674Z,51.80
2017-06-29T13:16:41.115Z,53.20
2017-06-29T13:19:09.553Z,53.30
2017-06-29T13:21:38.017Z,52.00
2017-06-29T13:24:06.468Z,51.70
2017-06-29T13:26:35.032Z,52.20
2017-06-29T13:29:03.479Z,52.60
2017-06-29T13:31:33.965Z,54.00
2017-06-29T13:34:02.618Z,54.00
2017-06-29T13:36:31.379Z,53.40
2017-06-29T13:38:59.897Z,52.50
2017-06-29T13:41:28.500Z,52.30
2017-06-29T13:43:56.294Z,53.40
2017-06-29T13:46:26.256Z,53.10
2017-06-29T13:48:54.699Z,53.10
2017-06-29T13:51:23.302Z,52.20
2017-06-29T13:53:51.835Z,51.60
2017-06-29T13:56:20.419Z,53.70
2017-06-29T13:58:48.848Z,52.80
2017-06-29T14:01:17.329Z,51.60
2017-06-29T14:03:45.782Z,50.30
2017-06-29T14:06:15.022Z,50.20
2017-06-29T14:08:43.862Z,50.10
2017-06-29T14:11:12.308Z,49.80
2017-06-29T14:13:40.888Z,50.00
2017-06-29T14:16:09.616Z,49.90
2017-06-29T14:18:39.067Z,49.80
2017-06-29T14:21:07.617Z,49.00
2017-06-29T14:23:36.067Z,49.50
2017-06-29T14:26:04.492Z,49.40
2017-06-29T14:28:32.931Z,50.10
2017-06-29T14:31:01.430Z,50.00
2017-06-29T14:33:30.756Z,51.50
2017-06-29T14:35:59.189Z,51.40
2017-06-29T14:38:27.637Z,50.50
2017-06-29T14:40:56.100Z,50.40
2017-06-29T14:43:24.549Z,49.70
2017-06-29T14:45:53.031Z,48.20
2017-06-29T14:48:21.456Z,49.20
2017-06-29T14:50:52.297Z,50.20
2017-06-29T14:53:20.746Z,50.40
2017-06-29T14:55:49.187Z,50.70
2017-06-29T14:58:18.432Z,50.10
2017-06-29T15:00:46.882Z,49.70
2017-06-29T15:03:16.074Z,50.90
2017-06-29T15:05:45.437Z,51.10
2017-06-29T15:08:13.851Z,51.00
2017-06-29T15:10:43.077Z,51.00
2017-06-29T15:13:11.519Z,51.00
2017-06-29T15:15:40.763Z,56.60
2017-06-29T15:18:09.197Z,56.70
2017-06-29T15:20:38.454Z,61.80
2017-06-29T15:23:06.901Z,61.70
2017-06-29T15:25:35.342Z,64.20
2017-06-29T15:28:03.856Z,65.60
2017-06-29T15:30:32.302Z,66.80
2017-06-29T15:33:00.739Z,67.80
2017-06-29T15:35:29.201Z,69.70
2017-06-29T15:37:57.648Z,69.60
2017-06-29T15:40:26.076Z,69.40
2017-06-29T15:42:54.528Z,68.80
2017-06-29T15:45:22.968Z,68.50
2017-06-29T15:47:51.409Z,69.10
2017-06-29T15:50:19.861Z,70.00
2017-06-29T15:52:48.627Z,69.00
2017-06-29T15:55:17.839Z,66.20
2017-06-29T15:57:47.049Z,66.40
2017-06-29T16:00:15.480Z,66.40
2017-06-29T16:02:43.916Z,66.40
2017-06-29T16:05:12.380Z,66.00
2017-06-29T16:07:40.820Z,66.40
2017-06-29T16:10:09.269Z,66.60
2017-06-29T16:12:37.722Z,67.40
2017-06-29T16:15:06.151Z,69.30
2017-06-29T16:17:34.576Z,71.00
2017-06-29T16:20:03.027Z,70.00
2017-06-29T16:22:31.475Z,68.70
2017-06-29T16:24:59.902Z,69.40
2017-06-29T16:27:29.133Z,72.70
2017-06-29T16:29:57.565Z,72.70
2017-06-29T16:32:25.832Z,77.50
2017-06-29T16:34:54.204Z,77.10
2017-06-29T16:37:22.646Z,76.90
2017-06-29T16:39:51.159Z,79.70
2017-06-29T16:42:19.613Z,80.30
2017-06-29T16:44:48.047Z,78.90
2017-06-29T16:47:17.253Z,80.20
2017-06-29T16:49:46.474Z,80.90
2017-06-29T16:52:14.901Z,80.90
2017-06-29T16:54:43.341Z,81.90
2017-06-29T16:57:11.782Z,81.60
2017-06-29T16:59:40.964Z,82.30
2017-06-29T17:02:09.389Z,82.40
2017-06-29T17:04:37.835Z,82.50
2017-06-29T17:07:06.267Z,81.10
2017-06-29T17:09:34.708Z,81.60
2017-06-29T17:12:03.160Z,81.60
2017-06-29T17:14:31.599Z,82.20
2017-06-29T17:17:00.015Z,82.60
2017-06-29T17:19:28.473Z,84.20
2017-06-29T17:21:56.911Z,87.00
2017-06-29T17:24:25.336Z,87.60
2017-06-29T17:26:53.774Z,88.50
2017-06-29T17:29:22.212Z,88.20
2017-06-29T17:31:50.643Z,86.90
2017-06-29T17:34:19.107Z,88.40
2017-06-29T17:36:47.557Z,87.60
2017-06-29T17:39:16.766Z,88.80
2017-06-29T17:41:46.066Z,89.00
2017-06-29T17:44:15.253Z,89.50
2017-06-29T17:46:44.528Z,89.90
2017-06-29T17:49:12.980Z,89.90
2017-06-29T17:51:41.412Z,90.00
2017-06-29T17:54:10.674Z,89.60
2017-06-29T17:56:39.085Z,90.00
2017-06-29T17:59:08.287Z,90.00
2017-06-29T18:01:37.475Z,90.10
2017-06-29T18:04:06.695Z,90.50
2017-06-29T18:06:35.118Z,90.10
2017-06-29T18:09:03.204Z,90.10
2017-06-29T18:11:31.680Z,90.10
2017-06-29T18:14:00.124Z,90.20
2017-06-29T18:16:28.547Z,88.00
2017-06-29T18:18:57.011Z,87.30
2017-06-29T18:21:25.431Z,87.00
2017-06-29T18:23:54.638Z,86.50
2017-06-29T18:26:23.100Z,86.40
2017-06-29T18:28:52.296Z,87.50
2017-06-29T18:31:21.483Z,86.50
2017-06-29T18:33:49.943Z,86.50
2017-06-29T18:36:18.391Z,86.00
2017-06-29T18:38:46.831Z,86.80
2017-06-29T18:41:16.065Z,87.20
2017-06-29T18:43:44.497Z,87.20
2017-06-29T18:46:12.931Z,88.40
2017-06-29T18:48:41.364Z,89.10
2017-06-29T18:51:09.792Z,88.90
2017-06-29T18:53:38.232Z,87.00
2017-06-29T18:56:07.857Z,89.10
2017-06-29T18:58:36.297Z,89.10
2017-06-29T19:01:04.737Z,89.00
2017-06-29T19:03:33.196Z,88.90
2017-06-29T19:06:01.654Z,89.50
2017-06-29T19:08:30.852Z,89.80
2017-06-29T19:11:00.068Z,89.10
2017-06-29T19:13:28.479Z,89.00
2017-06-29T19:15:56.729Z,90.10
2017-06-29T19:18:25.199Z,90.20
2017-06-29T19:20:54.571Z,89.20
2017-06-29T19:23:23.073Z,88.20
2017-06-29T19:25:52.314Z,88.00
2017-06-29T19:28:20.762Z,88.00
2017-06-29T19:30:49.188Z,88.60
2017-06-29T19:33:17.683Z,88.40
2017-06-29T19:35:46.103Z,88.10
2017-06-29T19:38:14.573Z,88.30
2017-06-29T19:40:43.042Z,89.00
2017-06-29T19:43:12.247Z,88.50
2017-06-29T19:45:41.439Z,88.10
2017-06-29T19:48:10.692Z,88.40
2017-06-29T19:50:39.124Z,88.30
2017-06-29T19:53:07.563Z,88.00
2017-06-29T19:55:35.649Z,87.80
2017-06-29T19:58:04.855Z,87.20
2017-06-29T20:00:34.191Z,89.00
2017-06-29T20:03:02.653Z,88.20
2017-06-29T20:05:31.085Z,88.70
2017-06-29T20:07:59.530Z,87.40
2017-06-29T20:10:28.005Z,86.40
2017-06-29T20:12:56.453Z,86.40
2017-06-29T20:15:25.663Z,86.30
2017-06-29T20:17:54.895Z,86.40
2017-06-29T20:20:23.361Z,85.60
2017-06-29T20:22:51.416Z,85.90
2017-06-29T20:25:19.885Z,85.50
2017-06-29T20:27:49.100Z,85.80
2017-06-29T20:30:17.548Z,85.70
2017-06-29T20:32:46.036Z,85.20
2017-06-29T20:35:15.144Z,86.10
2017-06-29T20:37:43.651Z,85.80
2017-06-29T20:40:12.097Z,86.10
2017-06-29T20:42:41.297Z,86.30
2017-06-29T20:45:10.502Z,86.20
2017-06-29T20:47:38.940Z,86.10
2017-06-29T20:50:07.456Z,86.40
2017-06-29T20:52:35.896Z,87.20
2017-06-29T20:55:04.356Z,86.50
2017-06-29T20:57:32.783Z,86.60
2017-06-29T21:00:01.975Z,87.40
2017-06-29T21:02:31.202Z,86.30
2017-06-29T21:04:59.883Z,86.30
2017-06-29T21:07:28.356Z,86.40
2017-06-29T21:09:56.834Z,86.00
2017-06-29T21:12:25.302Z,85.80
2017-06-29T21:14:53.723Z,86.50
2017-06-29T21:17:22.195Z,86.00
2017-06-29T21:19:50.627Z,86.30
2017-06-29T21:22:19.056Z,85.60
2017-06-29T21:24:47.500Z,86.20
2017-06-29T21:27:16.691Z,86.20
2017-06-29T21:29:45.894Z,86.80
2017-06-29T21:32:15.067Z,86.60
2017-06-29T21:34:43.507Z,86.60
2017-06-29T21:37:11.927Z,87.30
2017-06-29T21:39:40.188Z,87.70
2017-06-29T21:42:08.608Z,87.40
2017-06-29T21:44:37.800Z,86.50
2017-06-29T21:47:07.022Z,87.20
2017-06-29T21:49:35.443Z,87.10
2017-06-29T21:52:03.878Z,88.10
2017-06-29T21:54:32.349Z,87.90
2017-06-29T21:57:00.767Z,88.20
2017-06-29T21:59:29.184Z,88.20
2017-06-29T22:01:58.397Z,88.20
2017-06-29T22:04:27.608Z,88.40
2017-06-29T22:06:56.045Z,88.40
2017-06-29T22:09:24.559Z,88.40
2017-06-29T22:11:52.991Z,88.80
2017-06-29T22:14:21.405Z,88.50
2017-06-29T22:16:50.605Z,88.70
2017-06-29T22:19:19.797Z,88.80
2017-06-29T22:21:48.978Z,89.20
2017-06-29T22:24:17.412Z,88.50
2017-06-29T22:26:45.836Z,88.60
2017-06-29T22:29:14.267Z,88.70
2017-06-29T22:31:42.711Z,88.20
2017-06-29T22:34:11.891Z,88.40
2017-06-29T22:36:40.295Z,88.40
2017-06-29T22:39:08.782Z,88.40
2017-06-29T22:41:37.165Z,88.70
2017-06-29T22:44:05.580Z,89.30
2017-06-29T22:46:34.015Z,89.10
2017-06-29T22:49:02.424Z,89.50
2017-06-29T22:51:30.855Z,89.70
2017-06-29T22:54:00.072Z,89.50
2017-06-29T22:56:28.482Z,89.50
2017-06-29T22:58:56.908Z,89.40
2017-06-29T23:01:26.118Z,90.00
2017-06-29T23:03:55.300Z,89.00
2017-06-29T23:06:24.476Z,89.40
2017-06-29T23:08:52.929Z,89.20
2017-06-29T23:11:21.338Z,89.10
2017-06-29T23:13:49.747Z,89.20
2017-06-29T23:16:18.177Z,88.70
2017-06-29T23:18:46.594Z,88.30
2017-06-29T23:21:15.780Z,87.70
2017-06-29T23:23:44.212Z,87.60
2017-06-29T23:26:12.620Z,87.20
2017-06-29T23:28:41.037Z,86.70
2017-06-29T23:31:10.252Z,86.20
2017-06-29T23:33:38.716Z,86.20
2017-06-29T23:36:07.122Z,86.00
2017-06-29T23:38:35.568Z,85.30
2017-06-29T23:41:04.736Z,86.70
2017-06-29T23:43:33.159Z,86.50
2017-06-29T23:46:01.603Z,84.10
2017-06-29T23:48:30.021Z,83.80
2017-06-29T23:50:58.489Z,83.70
2017-06-29T23:53:26.941Z,84.20
2017-06-29T23:55:55.360Z,85.30
2017-06-29T23:58:23.788Z,85.80
